Pendleton, Oregon
Current Conditions -  °F | °C
As of 7:53 PM on Saturday 25 Oct 2014 (Local Time) from KPDT Reporting Station
Clear Clear  
Wind Chill: 60°   Ceiling: Unl
Heat Index: 60°   Visibility: 10mi
Dew Point: 45°   Wind: 16mph
Humidity: 57%   Direction: 190°S
Pressure: 29.61"   Gusts: 24mph
Location:  45.67°N, 118.78°W
Report Text: KPDT 260253Z 19014G21KT 10SM CLR 16/07 A2961 RMK AO2 PRESRR SLP020 60000 T01560072 51036
Loading
Personal Weather Stations






























Interactive Weather Map
Tropical Storm Tracking
New forecast layout! Learn more

10-Day Weather Forecast

Advertisements
Track Severe Weather on mobile